sensor_id;sensor_type;location;lat;lon;timestamp;P1;durP1;ratioP1;P2;durP2;ratioP2
26034;SDS011;13809;48.632;11.576;2023-05-07T00:04:37;2.43;;;2.23;;
26034;SDS011;13809;48.632;11.576;2023-05-07T00:09:41;2.40;;;2.00;;
26034;SDS011;13809;48.632;11.576;2023-05-07T00:14:44;2.17;;;2.00;;
26034;SDS011;13809;48.632;11.576;2023-05-07T00:19:48;3.27;;;2.63;;
26034;SDS011;13809;48.632;11.576;2023-05-07T00:24:51;2.77;;;2.57;;
26034;SDS011;13809;48.632;11.576;2023-05-07T00:29:55;3.23;;;2.93;;
26034;SDS011;13809;48.632;11.576;2023-05-07T00:34:59;2.53;;;2.33;;
26034;SDS011;13809;48.632;11.576;2023-05-07T00:40:03;2.10;;;1.90;;
26034;SDS011;13809;48.632;11.576;2023-05-07T00:45:09;2.50;;;2.30;;
26034;SDS011;13809;48.632;11.576;2023-05-07T00:50:13;2.83;;;2.53;;
26034;SDS011;13809;48.632;11.576;2023-05-07T00:55:16;2.50;;;2.30;;
26034;SDS011;13809;48.632;11.576;2023-05-07T01:00:20;2.77;;;2.57;;
26034;SDS011;13809;48.632;11.576;2023-05-07T01:05:25;2.40;;;2.00;;
26034;SDS011;13809;48.632;11.576;2023-05-07T01:10:29;2.37;;;2.13;;
26034;SDS011;13809;48.632;11.576;2023-05-07T01:15:33;4.17;;;2.60;;
26034;SDS011;13809;48.632;11.576;2023-05-07T01:20:37;2.23;;;2.03;;
26034;SDS011;13809;48.632;11.576;2023-05-07T01:25:42;2.77;;;2.47;;
26034;SDS011;13809;48.632;11.576;2023-05-07T01:30:46;2.47;;;2.23;;
26034;SDS011;13809;48.632;11.576;2023-05-07T01:35:53;1.93;;;1.83;;
26034;SDS011;13809;48.632;11.576;2023-05-07T01:40:57;2.20;;;2.00;;
26034;SDS011;13809;48.632;11.576;2023-05-07T01:46:02;2.67;;;1.73;;
26034;SDS011;13809;48.632;11.576;2023-05-07T01:51:07;2.30;;;2.03;;
26034;SDS011;13809;48.632;11.576;2023-05-07T01:56:12;1.90;;;1.80;;
26034;SDS011;13809;48.632;11.576;2023-05-07T02:01:15;2.30;;;2.10;;
26034;SDS011;13809;48.632;11.576;2023-05-07T02:06:18;2.20;;;2.00;;
26034;SDS011;13809;48.632;11.576;2023-05-07T02:11:23;2.50;;;2.30;;
26034;SDS011;13809;48.632;11.576;2023-05-07T02:16:27;2.10;;;1.93;;
26034;SDS011;13809;48.632;11.576;2023-05-07T02:21:30;2.70;;;2.10;;
26034;SDS011;13809;48.632;11.576;2023-05-07T02:26:34;2.13;;;2.03;;
26034;SDS011;13809;48.632;11.576;2023-05-07T02:31:37;2.20;;;2.10;;
26034;SDS011;13809;48.632;11.576;2023-05-07T02:36:41;2.43;;;2.10;;
26034;SDS011;13809;48.632;11.576;2023-05-07T02:41:45;3.00;;;1.80;;
26034;SDS011;13809;48.632;11.576;2023-05-07T02:46:48;3.93;;;2.00;;
26034;SDS011;13809;48.632;11.576;2023-05-07T02:51:51;1.87;;;1.77;;
26034;SDS011;13809;48.632;11.576;2023-05-07T02:56:56;2.30;;;2.20;;
26034;SDS011;13809;48.632;11.576;2023-05-07T03:01:59;3.03;;;1.90;;
26034;SDS011;13809;48.632;11.576;2023-05-07T03:07:02;2.00;;;1.90;;
26034;SDS011;13809;48.632;11.576;2023-05-07T03:12:07;2.07;;;1.97;;
26034;SDS011;13809;48.632;11.576;2023-05-07T03:17:10;2.20;;;1.90;;
26034;SDS011;13809;48.632;11.576;2023-05-07T03:22:13;2.37;;;2.00;;
26034;SDS011;13809;48.632;11.576;2023-05-07T03:27:18;2.00;;;1.90;;
26034;SDS011;13809;48.632;11.576;2023-05-07T03:32:21;2.13;;;2.03;;
26034;SDS011;13809;48.632;11.576;2023-05-07T03:37:25;2.23;;;1.80;;
26034;SDS011;13809;48.632;11.576;2023-05-07T03:42:29;1.70;;;1.60;;
26034;SDS011;13809;48.632;11.576;2023-05-07T03:47:33;1.80;;;1.70;;
26034;SDS011;13809;48.632;11.576;2023-05-07T03:52:36;1.43;;;1.33;;
26034;SDS011;13809;48.632;11.576;2023-05-07T03:57:40;2.00;;;1.90;;
26034;SDS011;13809;48.632;11.576;2023-05-07T04:02:43;1.83;;;1.73;;
26034;SDS011;13809;48.632;11.576;2023-05-07T04:07:47;1.87;;;1.57;;
26034;SDS011;13809;48.632;11.576;2023-05-07T04:12:51;2.00;;;1.90;;
26034;SDS011;13809;48.632;11.576;2023-05-07T04:17:55;1.90;;;1.80;;
26034;SDS011;13809;48.632;11.576;2023-05-07T04:22:58;1.70;;;1.50;;
26034;SDS011;13809;48.632;11.576;2023-05-07T04:28:04;1.60;;;1.50;;
26034;SDS011;13809;48.632;11.576;2023-05-07T04:33:07;1.43;;;1.33;;
26034;SDS011;13809;48.632;11.576;2023-05-07T04:38:10;1.60;;;1.50;;
26034;SDS011;13809;48.632;11.576;2023-05-07T04:43:15;1.80;;;1.70;;
26034;SDS011;13809;48.632;11.576;2023-05-07T04:48:18;1.70;;;1.60;;
26034;SDS011;13809;48.632;11.576;2023-05-07T04:53:21;1.47;;;1.43;;
26034;SDS011;13809;48.632;11.576;2023-05-07T04:58:26;1.80;;;1.70;;
26034;SDS011;13809;48.632;11.576;2023-05-07T05:03:33;1.70;;;1.60;;
26034;SDS011;13809;48.632;11.576;2023-05-07T05:08:36;2.00;;;1.90;;
26034;SDS011;13809;48.632;11.576;2023-05-07T05:13:41;2.40;;;2.20;;
26034;SDS011;13809;48.632;11.576;2023-05-07T05:18:44;2.30;;;2.10;;
26034;SDS011;13809;48.632;11.576;2023-05-07T05:23:47;4.13;;;2.50;;
26034;SDS011;13809;48.632;11.576;2023-05-07T05:28:52;2.40;;;2.30;;
26034;SDS011;13809;48.632;11.576;2023-05-07T05:33:55;2.47;;;2.23;;
26034;SDS011;13809;48.632;11.576;2023-05-07T05:38:58;2.97;;;2.77;;
26034;SDS011;13809;48.632;11.576;2023-05-07T05:44:03;2.60;;;2.40;;
26034;SDS011;13809;48.632;11.576;2023-05-07T05:49:06;2.23;;;2.13;;
26034;SDS011;13809;48.632;11.576;2023-05-07T05:54:09;4.07;;;2.40;;
26034;SDS011;13809;48.632;11.576;2023-05-07T05:59:14;2.80;;;2.60;;
26034;SDS011;13809;48.632;11.576;2023-05-07T06:04:17;2.93;;;2.73;;
26034;SDS011;13809;48.632;11.576;2023-05-07T06:09:21;3.43;;;3.03;;
26034;SDS011;13809;48.632;11.576;2023-05-07T06:14:25;3.43;;;2.97;;
26034;SDS011;13809;48.632;11.576;2023-05-07T06:19:29;3.83;;;3.30;;
26034;SDS011;13809;48.632;11.576;2023-05-07T06:24:32;3.60;;;3.33;;
26034;SDS011;13809;48.632;11.576;2023-05-07T06:29:36;3.47;;;3.27;;
26034;SDS011;13809;48.632;11.576;2023-05-07T06:34:39;3.17;;;2.97;;
26034;SDS011;13809;48.632;11.576;2023-05-07T06:39:43;3.43;;;3.23;;
26034;SDS011;13809;48.632;11.576;2023-05-07T06:44:47;3.97;;;3.57;;
26034;SDS011;13809;48.632;11.576;2023-05-07T06:49:50;2.67;;;2.47;;
26034;SDS011;13809;48.632;11.576;2023-05-07T06:54:54;3.30;;;3.10;;
26034;SDS011;13809;48.632;11.576;2023-05-07T06:59:58;3.13;;;2.93;;
26034;SDS011;13809;48.632;11.576;2023-05-07T07:05:01;3.53;;;3.30;;
26034;SDS011;13809;48.632;11.576;2023-05-07T07:10:05;3.30;;;3.10;;
26034;SDS011;13809;48.632;11.576;2023-05-07T07:15:11;3.80;;;3.50;;
26034;SDS011;13809;48.632;11.576;2023-05-07T07:20:15;3.30;;;3.10;;
26034;SDS011;13809;48.632;11.576;2023-05-07T07:25:18;3.30;;;3.10;;
26034;SDS011;13809;48.632;11.576;2023-05-07T07:30:23;4.77;;;3.40;;
26034;SDS011;13809;48.632;11.576;2023-05-07T07:35:27;3.77;;;3.40;;
26034;SDS011;13809;48.632;11.576;2023-05-07T07:40:31;3.80;;;3.50;;
26034;SDS011;13809;48.632;11.576;2023-05-07T07:45:35;3.40;;;3.20;;
26034;SDS011;13809;48.632;11.576;2023-05-07T07:50:41;4.37;;;2.80;;
26034;SDS011;13809;48.632;11.576;2023-05-07T07:55:46;3.63;;;3.33;;
26034;SDS011;13809;48.632;11.576;2023-05-07T08:00:51;3.60;;;3.30;;
26034;SDS011;13809;48.632;11.576;2023-05-07T08:05:55;3.43;;;3.20;;
26034;SDS011;13809;48.632;11.576;2023-05-07T08:10:59;3.27;;;3.03;;
26034;SDS011;13809;48.632;11.576;2023-05-07T08:16:04;3.60;;;3.33;;
26034;SDS011;13809;48.632;11.576;2023-05-07T08:21:08;2.97;;;2.77;;
26034;SDS011;13809;48.632;11.576;2023-05-07T08:26:11;3.23;;;3.03;;
26034;SDS011;13809;48.632;11.576;2023-05-07T08:31:16;3.00;;;2.80;;
26034;SDS011;13809;48.632;11.576;2023-05-07T08:36:19;2.93;;;2.73;;
26034;SDS011;13809;48.632;11.576;2023-05-07T08:41:22;3.40;;;3.10;;
26034;SDS011;13809;48.632;11.576;2023-05-07T08:46:27;3.50;;;3.20;;
26034;SDS011;13809;48.632;11.576;2023-05-07T08:51:35;2.80;;;2.60;;
26034;SDS011;13809;48.632;11.576;2023-05-07T08:56:38;3.33;;;2.73;;
26034;SDS011;13809;48.632;11.576;2023-05-07T09:01:43;2.60;;;2.50;;
26034;SDS011;13809;48.632;11.576;2023-05-07T09:06:47;2.93;;;2.73;;
26034;SDS011;13809;48.632;11.576;2023-05-07T09:11:56;3.50;;;3.20;;
26034;SDS011;13809;48.632;11.576;2023-05-07T09:17:02;3.60;;;2.73;;
26034;SDS011;13809;48.632;11.576;2023-05-07T09:22:05;2.90;;;2.70;;
26034;SDS011;13809;48.632;11.576;2023-05-07T09:27:09;2.40;;;2.23;;
26034;SDS011;13809;48.632;11.576;2023-05-07T09:32:16;3.23;;;2.97;;
26034;SDS011;13809;48.632;11.576;2023-05-07T09:37:19;2.70;;;2.50;;
26034;SDS011;13809;48.632;11.576;2023-05-07T09:42:22;2.20;;;2.10;;
26034;SDS011;13809;48.632;11.576;2023-05-07T09:47:28;2.63;;;2.43;;
26034;SDS011;13809;48.632;11.576;2023-05-07T09:52:35;2.33;;;2.00;;
26034;SDS011;13809;48.632;11.576;2023-05-07T09:57:39;3.57;;;3.33;;
26034;SDS011;13809;48.632;11.576;2023-05-07T10:02:45;3.27;;;3.07;;
26034;SDS011;13809;48.632;11.576;2023-05-07T10:07:50;2.87;;;2.70;;
26034;SDS011;13809;48.632;11.576;2023-05-07T10:12:55;2.40;;;2.20;;
26034;SDS011;13809;48.632;11.576;2023-05-07T10:17:59;2.27;;;2.17;;
26034;SDS011;13809;48.632;11.576;2023-05-07T10:23:04;1.97;;;1.87;;
26034;SDS011;13809;48.632;11.576;2023-05-07T10:28:08;2.00;;;1.90;;
26034;SDS011;13809;48.632;11.576;2023-05-07T10:33:16;1.60;;;1.50;;
26034;SDS011;13809;48.632;11.576;2023-05-07T10:38:22;2.00;;;1.80;;
26034;SDS011;13809;48.632;11.576;2023-05-07T10:43:32;2.10;;;2.00;;
26034;SDS011;13809;48.632;11.576;2023-05-07T10:54:19;1.67;;;1.57;;
26034;SDS011;13809;48.632;11.576;2023-05-07T10:59:32;1.57;;;1.57;;
26034;SDS011;13809;48.632;11.576;2023-05-07T11:04:43;2.03;;;1.90;;
26034;SDS011;13809;48.632;11.576;2023-05-07T11:09:56;1.77;;;1.67;;
26034;SDS011;13809;48.632;11.576;2023-05-07T11:15:02;2.57;;;1.80;;
26034;SDS011;13809;48.632;11.576;2023-05-07T11:20:08;1.70;;;1.57;;
26034;SDS011;13809;48.632;11.576;2023-05-07T11:25:16;1.93;;;1.83;;
26034;SDS011;13809;48.632;11.576;2023-05-07T11:30:20;2.00;;;1.90;;
26034;SDS011;13809;48.632;11.576;2023-05-07T11:35:26;2.10;;;2.00;;
26034;SDS011;13809;48.632;11.576;2023-05-07T11:40:29;2.47;;;2.00;;
26034;SDS011;13809;48.632;11.576;2023-05-07T11:45:32;2.50;;;1.90;;
26034;SDS011;13809;48.632;11.576;2023-05-07T11:50:46;2.03;;;1.93;;
26034;SDS011;13809;48.632;11.576;2023-05-07T11:55:53;3.30;;;2.10;;
26034;SDS011;13809;48.632;11.576;2023-05-07T12:00:57;3.90;;;1.97;;
26034;SDS011;13809;48.632;11.576;2023-05-07T12:06:02;1.97;;;1.87;;
26034;SDS011;13809;48.632;11.576;2023-05-07T12:11:08;2.30;;;1.60;;
26034;SDS011;13809;48.632;11.576;2023-05-07T12:16:12;1.83;;;1.70;;
26034;SDS011;13809;48.632;11.576;2023-05-07T12:21:18;1.70;;;1.60;;
26034;SDS011;13809;48.632;11.576;2023-05-07T12:26:21;2.60;;;1.70;;
26034;SDS011;13809;48.632;11.576;2023-05-07T12:31:25;1.90;;;1.80;;
26034;SDS011;13809;48.632;11.576;2023-05-07T12:36:37;1.80;;;1.70;;
26034;SDS011;13809;48.632;11.576;2023-05-07T12:41:53;1.67;;;1.57;;
26034;SDS011;13809;48.632;11.576;2023-05-07T12:46:56;1.70;;;1.60;;
26034;SDS011;13809;48.632;11.576;2023-05-07T12:52:01;1.60;;;1.50;;
26034;SDS011;13809;48.632;11.576;2023-05-07T12:57:05;1.70;;;1.60;;
26034;SDS011;13809;48.632;11.576;2023-05-07T13:02:10;1.87;;;1.60;;
26034;SDS011;13809;48.632;11.576;2023-05-07T13:07:14;1.30;;;1.30;;
26034;SDS011;13809;48.632;11.576;2023-05-07T13:12:17;1.30;;;1.30;;
26034;SDS011;13809;48.632;11.576;2023-05-07T13:17:21;1.37;;;1.30;;
26034;SDS011;13809;48.632;11.576;2023-05-07T13:22:25;2.07;;;1.40;;
26034;SDS011;13809;48.632;11.576;2023-05-07T13:27:28;1.77;;;1.67;;
26034;SDS011;13809;48.632;11.576;2023-05-07T13:32:32;1.37;;;1.27;;
26034;SDS011;13809;48.632;11.576;2023-05-07T13:37:36;1.60;;;1.50;;
26034;SDS011;13809;48.632;11.576;2023-05-07T13:42:40;1.50;;;1.40;;
26034;SDS011;13809;48.632;11.576;2023-05-07T13:47:43;1.27;;;1.27;;
26034;SDS011;13809;48.632;11.576;2023-05-07T13:52:48;1.63;;;1.50;;
26034;SDS011;13809;48.632;11.576;2023-05-07T13:57:55;1.47;;;1.37;;
26034;SDS011;13809;48.632;11.576;2023-05-07T14:02:59;2.23;;;1.57;;
26034;SDS011;13809;48.632;11.576;2023-05-07T14:08:03;1.87;;;1.70;;
26034;SDS011;13809;48.632;11.576;2023-05-07T14:13:06;1.67;;;1.57;;
26034;SDS011;13809;48.632;11.576;2023-05-07T14:18:10;1.93;;;1.83;;
26034;SDS011;13809;48.632;11.576;2023-05-07T14:23:14;2.57;;;1.77;;
26034;SDS011;13809;48.632;11.576;2023-05-07T14:28:18;2.00;;;1.60;;
26034;SDS011;13809;48.632;11.576;2023-05-07T14:33:22;1.73;;;1.63;;
26034;SDS011;13809;48.632;11.576;2023-05-07T14:38:26;1.70;;;1.60;;
26034;SDS011;13809;48.632;11.576;2023-05-07T14:43:29;1.70;;;1.60;;
26034;SDS011;13809;48.632;11.576;2023-05-07T14:48:32;1.70;;;1.60;;
26034;SDS011;13809;48.632;11.576;2023-05-07T14:53:37;1.70;;;1.60;;
26034;SDS011;13809;48.632;11.576;2023-05-07T14:58:41;1.70;;;1.60;;
26034;SDS011;13809;48.632;11.576;2023-05-07T15:03:44;1.60;;;1.50;;
26034;SDS011;13809;48.632;11.576;2023-05-07T15:08:48;1.40;;;1.30;;
26034;SDS011;13809;48.632;11.576;2023-05-07T15:13:52;1.83;;;1.40;;
26034;SDS011;13809;48.632;11.576;2023-05-07T15:18:55;1.70;;;1.60;;
26034;SDS011;13809;48.632;11.576;2023-05-07T15:23:59;1.57;;;1.47;;
26034;SDS011;13809;48.632;11.576;2023-05-07T15:29:03;1.73;;;1.60;;
26034;SDS011;13809;48.632;11.576;2023-05-07T15:34:11;1.80;;;1.70;;
26034;SDS011;13809;48.632;11.576;2023-05-07T15:39:17;1.53;;;1.43;;
26034;SDS011;13809;48.632;11.576;2023-05-07T15:44:22;1.90;;;1.80;;
26034;SDS011;13809;48.632;11.576;2023-05-07T15:49:28;1.60;;;1.50;;
26034;SDS011;13809;48.632;11.576;2023-05-07T15:54:33;1.40;;;1.40;;
26034;SDS011;13809;48.632;11.576;2023-05-07T15:59:36;1.70;;;1.60;;
26034;SDS011;13809;48.632;11.576;2023-05-07T16:04:39;1.97;;;1.87;;
26034;SDS011;13809;48.632;11.576;2023-05-07T16:09:44;2.00;;;1.90;;
26034;SDS011;13809;48.632;11.576;2023-05-07T16:14:47;1.87;;;1.70;;
26034;SDS011;13809;48.632;11.576;2023-05-07T16:19:52;1.87;;;1.77;;
26034;SDS011;13809;48.632;11.576;2023-05-07T16:24:56;1.80;;;1.70;;
26034;SDS011;13809;48.632;11.576;2023-05-07T16:29:59;2.10;;;2.00;;
26034;SDS011;13809;48.632;11.576;2023-05-07T16:35:03;2.30;;;2.10;;
26034;SDS011;13809;48.632;11.576;2023-05-07T16:40:09;2.40;;;2.20;;
26034;SDS011;13809;48.632;11.576;2023-05-07T16:45:13;2.43;;;2.27;;
26034;SDS011;13809;48.632;11.576;2023-05-07T16:50:16;2.17;;;2.07;;
26034;SDS011;13809;48.632;11.576;2023-05-07T16:55:21;2.60;;;2.50;;
26034;SDS011;13809;48.632;11.576;2023-05-07T17:00:24;2.37;;;2.27;;
26034;SDS011;13809;48.632;11.576;2023-05-07T17:05:35;2.30;;;2.20;;
26034;SDS011;13809;48.632;11.576;2023-05-07T17:10:40;2.40;;;2.30;;
26034;SDS011;13809;48.632;11.576;2023-05-07T17:15:45;2.67;;;2.47;;
26034;SDS011;13809;48.632;11.576;2023-05-07T17:20:49;2.87;;;2.67;;
26034;SDS011;13809;48.632;11.576;2023-05-07T17:25:54;2.60;;;2.33;;
26034;SDS011;13809;48.632;11.576;2023-05-07T17:30:57;2.53;;;2.40;;
26034;SDS011;13809;48.632;11.576;2023-05-07T17:36:01;2.83;;;2.63;;
26034;SDS011;13809;48.632;11.576;2023-05-07T17:41:05;3.20;;;2.90;;
26034;SDS011;13809;48.632;11.576;2023-05-07T17:46:08;3.30;;;3.10;;
26034;SDS011;13809;48.632;11.576;2023-05-07T17:51:12;3.23;;;3.03;;
26034;SDS011;13809;48.632;11.576;2023-05-07T17:56:16;3.27;;;3.00;;
26034;SDS011;13809;48.632;11.576;2023-05-07T18:01:20;3.53;;;3.33;;
26034;SDS011;13809;48.632;11.576;2023-05-07T18:06:23;3.57;;;3.27;;
26034;SDS011;13809;48.632;11.576;2023-05-07T18:11:28;3.23;;;3.00;;
26034;SDS011;13809;48.632;11.576;2023-05-07T18:16:32;3.47;;;3.17;;
26034;SDS011;13809;48.632;11.576;2023-05-07T18:21:36;3.70;;;3.50;;
26034;SDS011;13809;48.632;11.576;2023-05-07T18:26:41;3.87;;;3.50;;
26034;SDS011;13809;48.632;11.576;2023-05-07T18:31:44;3.77;;;3.47;;
26034;SDS011;13809;48.632;11.576;2023-05-07T18:36:47;3.97;;;3.67;;
26034;SDS011;13809;48.632;11.576;2023-05-07T18:41:52;3.77;;;3.47;;
26034;SDS011;13809;48.632;11.576;2023-05-07T18:46:55;3.90;;;3.60;;
26034;SDS011;13809;48.632;11.576;2023-05-07T18:51:58;4.10;;;3.70;;
26034;SDS011;13809;48.632;11.576;2023-05-07T18:57:03;3.80;;;3.50;;
26034;SDS011;13809;48.632;11.576;2023-05-07T19:02:07;3.43;;;3.20;;
26034;SDS011;13809;48.632;11.576;2023-05-07T19:07:10;3.77;;;3.53;;
26034;SDS011;13809;48.632;11.576;2023-05-07T19:12:14;4.30;;;4.00;;
26034;SDS011;13809;48.632;11.576;2023-05-07T19:17:17;4.10;;;3.80;;
26034;SDS011;13809;48.632;11.576;2023-05-07T19:22:23;4.43;;;4.13;;
26034;SDS011;13809;48.632;11.576;2023-05-07T19:27:28;4.50;;;4.20;;
26034;SDS011;13809;48.632;11.576;2023-05-07T19:32:31;4.70;;;4.40;;
26034;SDS011;13809;48.632;11.576;2023-05-07T19:37:34;4.40;;;4.10;;
26034;SDS011;13809;48.632;11.576;2023-05-07T19:42:39;5.00;;;4.60;;
26034;SDS011;13809;48.632;11.576;2023-05-07T19:47:42;4.77;;;4.30;;
26034;SDS011;13809;48.632;11.576;2023-05-07T19:52:46;6.23;;;4.60;;
26034;SDS011;13809;48.632;11.576;2023-05-07T19:57:50;5.10;;;4.70;;
26034;SDS011;13809;48.632;11.576;2023-05-07T20:02:53;4.83;;;4.33;;
26034;SDS011;13809;48.632;11.576;2023-05-07T20:07:57;5.43;;;5.03;;
26034;SDS011;13809;48.632;11.576;2023-05-07T20:13:02;5.37;;;4.97;;
26034;SDS011;13809;48.632;11.576;2023-05-07T20:18:05;5.13;;;4.73;;
26034;SDS011;13809;48.632;11.576;2023-05-07T20:23:09;4.83;;;4.50;;
26034;SDS011;13809;48.632;11.576;2023-05-07T20:28:13;5.20;;;4.80;;
26034;SDS011;13809;48.632;11.576;2023-05-07T20:33:16;5.30;;;4.80;;
26034;SDS011;13809;48.632;11.576;2023-05-07T20:38:20;5.63;;;5.13;;
26034;SDS011;13809;48.632;11.576;2023-05-07T20:43:25;5.30;;;4.90;;
26034;SDS011;13809;48.632;11.576;2023-05-07T20:48:28;5.63;;;5.20;;
26034;SDS011;13809;48.632;11.576;2023-05-07T20:53:32;5.00;;;4.60;;
26034;SDS011;13809;48.632;11.576;2023-05-07T20:58:39;5.27;;;4.87;;
26034;SDS011;13809;48.632;11.576;2023-05-07T21:03:42;5.33;;;4.93;;
26034;SDS011;13809;48.632;11.576;2023-05-07T21:08:45;5.27;;;4.80;;
26034;SDS011;13809;48.632;11.576;2023-05-07T21:13:50;5.87;;;5.40;;
26034;SDS011;13809;48.632;11.576;2023-05-07T21:18:53;5.20;;;4.80;;
26034;SDS011;13809;48.632;11.576;2023-05-07T21:23:56;5.13;;;4.73;;
26034;SDS011;13809;48.632;11.576;2023-05-07T21:29:01;5.93;;;5.43;;
26034;SDS011;13809;48.632;11.576;2023-05-07T21:34:04;5.77;;;5.37;;
26034;SDS011;13809;48.632;11.576;2023-05-07T21:39:08;5.23;;;4.83;;
26034;SDS011;13809;48.632;11.576;2023-05-07T21:44:13;5.60;;;5.20;;
26034;SDS011;13809;48.632;11.576;2023-05-07T21:49:16;5.97;;;5.50;;
26034;SDS011;13809;48.632;11.576;2023-05-07T21:54:20;5.57;;;5.10;;
26034;SDS011;13809;48.632;11.576;2023-05-07T21:59:24;6.33;;;5.83;;
26034;SDS011;13809;48.632;11.576;2023-05-07T22:04:27;5.70;;;5.30;;
26034;SDS011;13809;48.632;11.576;2023-05-07T22:09:30;5.83;;;5.33;;
26034;SDS011;13809;48.632;11.576;2023-05-07T22:14:35;6.07;;;5.47;;
26034;SDS011;13809;48.632;11.576;2023-05-07T22:19:38;5.73;;;5.20;;
26034;SDS011;13809;48.632;11.576;2023-05-07T22:24:41;5.73;;;5.33;;
26034;SDS011;13809;48.632;11.576;2023-05-07T22:29:46;6.10;;;5.60;;
26034;SDS011;13809;48.632;11.576;2023-05-07T22:34:49;6.13;;;5.63;;
26034;SDS011;13809;48.632;11.576;2023-05-07T22:39:52;5.83;;;5.33;;
26034;SDS011;13809;48.632;11.576;2023-05-07T22:44:57;5.90;;;5.50;;
26034;SDS011;13809;48.632;11.576;2023-05-07T22:50:00;5.80;;;5.37;;
26034;SDS011;13809;48.632;11.576;2023-05-07T22:55:06;5.40;;;5.00;;
26034;SDS011;13809;48.632;11.576;2023-05-07T23:00:11;6.37;;;5.70;;
26034;SDS011;13809;48.632;11.576;2023-05-07T23:05:16;6.13;;;5.63;;
26034;SDS011;13809;48.632;11.576;2023-05-07T23:10:19;6.07;;;5.60;;
26034;SDS011;13809;48.632;11.576;2023-05-07T23:15:23;6.30;;;5.80;;
26034;SDS011;13809;48.632;11.576;2023-05-07T23:20:27;5.37;;;4.97;;
26034;SDS011;13809;48.632;11.576;2023-05-07T23:25:30;5.07;;;4.67;;
26034;SDS011;13809;48.632;11.576;2023-05-07T23:30:34;5.97;;;5.47;;
26034;SDS011;13809;48.632;11.576;2023-05-07T23:35:37;5.93;;;5.43;;
26034;SDS011;13809;48.632;11.576;2023-05-07T23:40:40;5.50;;;5.07;;
26034;SDS011;13809;48.632;11.576;2023-05-07T23:45:45;5.90;;;5.47;;
26034;SDS011;13809;48.632;11.576;2023-05-07T23:50:48;6.10;;;5.60;;
26034;SDS011;13809;48.632;11.576;2023-05-07T23:55:52;5.57;;;5.07;;
